sensor_id;sensor_type;location;lat;lon;timestamp;P1;durP1;ratioP1;P2;durP2;ratioP2
35128;SDS011;21301;43.626;10.580;2023-07-02T00:00:32;8.27;;;4.22;;
35128;SDS011;21301;43.626;10.580;2023-07-02T00:02:59;7.47;;;4.80;;
35128;SDS011;21301;43.626;10.580;2023-07-02T00:05:26;9.45;;;3.90;;
35128;SDS011;21301;43.626;10.580;2023-07-02T00:07:52;9.10;;;3.80;;
35128;SDS011;21301;43.626;10.580;2023-07-02T00:10:18;9.77;;;4.60;;
35128;SDS011;21301;43.626;10.580;2023-07-02T00:12:44;9.30;;;3.83;;
35128;SDS011;21301;43.626;10.580;2023-07-02T00:15:10;9.77;;;4.55;;
35128;SDS011;21301;43.626;10.580;2023-07-02T00:17:36;11.50;;;4.20;;
35128;SDS011;21301;43.626;10.580;2023-07-02T00:20:06;7.75;;;3.67;;
35128;SDS011;21301;43.626;10.580;2023-07-02T00:22:39;9.38;;;4.32;;
35128;SDS011;21301;43.626;10.580;2023-07-02T00:25:09;13.80;;;4.25;;
35128;SDS011;21301;43.626;10.580;2023-07-02T00:27:37;10.23;;;4.32;;
35128;SDS011;21301;43.626;10.580;2023-07-02T00:30:03;9.80;;;3.50;;
35128;SDS011;21301;43.626;10.580;2023-07-02T00:32:29;7.88;;;3.65;;
35128;SDS011;21301;43.626;10.580;2023-07-02T00:34:55;7.75;;;3.67;;
35128;SDS011;21301;43.626;10.580;2023-07-02T00:37:21;9.43;;;4.63;;
35128;SDS011;21301;43.626;10.580;2023-07-02T00:39:47;8.18;;;4.28;;
35128;SDS011;21301;43.626;10.580;2023-07-02T00:42:13;6.50;;;3.75;;
35128;SDS011;21301;43.626;10.580;2023-07-02T00:44:39;7.97;;;3.75;;
35128;SDS011;21301;43.626;10.580;2023-07-02T00:47:07;7.75;;;3.50;;
35128;SDS011;21301;43.626;10.580;2023-07-02T00:49:34;6.95;;;3.63;;
35128;SDS011;21301;43.626;10.580;2023-07-02T00:51:59;7.40;;;3.45;;
35128;SDS011;21301;43.626;10.580;2023-07-02T00:54:29;8.13;;;3.70;;
35128;SDS011;21301;43.626;10.580;2023-07-02T00:56:55;11.98;;;4.28;;
35128;SDS011;21301;43.626;10.580;2023-07-02T00:59:21;7.85;;;3.63;;
35128;SDS011;21301;43.626;10.580;2023-07-02T01:01:47;10.23;;;4.82;;
35128;SDS011;21301;43.626;10.580;2023-07-02T01:04:18;11.07;;;5.43;;
35128;SDS011;21301;43.626;10.580;2023-07-02T01:06:44;8.60;;;4.72;;
35128;SDS011;21301;43.626;10.580;2023-07-02T01:09:11;12.07;;;4.93;;
35128;SDS011;21301;43.626;10.580;2023-07-02T01:11:42;10.63;;;4.60;;
35128;SDS011;21301;43.626;10.580;2023-07-02T01:16:41;8.98;;;4.80;;
35128;SDS011;21301;43.626;10.580;2023-07-02T01:19:21;8.35;;;4.68;;
35128;SDS011;21301;43.626;10.580;2023-07-02T01:22:07;7.60;;;4.82;;
35128;SDS011;21301;43.626;10.580;2023-07-02T01:24:44;11.90;;;5.85;;
35128;SDS011;21301;43.626;10.580;2023-07-02T01:27:12;9.98;;;5.18;;
35128;SDS011;21301;43.626;10.580;2023-07-02T01:29:38;11.82;;;5.22;;
35128;SDS011;21301;43.626;10.580;2023-07-02T01:32:04;12.52;;;5.75;;
35128;SDS011;21301;43.626;10.580;2023-07-02T01:34:31;13.38;;;5.63;;
35128;SDS011;21301;43.626;10.580;2023-07-02T01:36:56;12.35;;;5.43;;
35128;SDS011;21301;43.626;10.580;2023-07-02T01:39:22;11.52;;;5.38;;
35128;SDS011;21301;43.626;10.580;2023-07-02T01:41:52;9.75;;;5.10;;
35128;SDS011;21301;43.626;10.580;2023-07-02T01:44:20;13.77;;;5.20;;
35128;SDS011;21301;43.626;10.580;2023-07-02T01:46:46;10.70;;;5.38;;
35128;SDS011;21301;43.626;10.580;2023-07-02T01:49:15;9.48;;;5.32;;
35128;SDS011;21301;43.626;10.580;2023-07-02T01:51:49;10.23;;;5.20;;
35128;SDS011;21301;43.626;10.580;2023-07-02T01:54:18;12.50;;;4.57;;
35128;SDS011;21301;43.626;10.580;2023-07-02T01:56:45;9.50;;;4.70;;
35128;SDS011;21301;43.626;10.580;2023-07-02T01:59:12;12.70;;;6.05;;
35128;SDS011;21301;43.626;10.580;2023-07-02T02:01:38;10.13;;;5.25;;
35128;SDS011;21301;43.626;10.580;2023-07-02T02:04:07;12.60;;;5.68;;
35128;SDS011;21301;43.626;10.580;2023-07-02T02:06:33;12.32;;;4.38;;
35128;SDS011;21301;43.626;10.580;2023-07-02T02:09:00;13.35;;;5.10;;
35128;SDS011;21301;43.626;10.580;2023-07-02T02:11:27;13.02;;;4.88;;
35128;SDS011;21301;43.626;10.580;2023-07-02T02:13:52;17.48;;;5.97;;
35128;SDS011;21301;43.626;10.580;2023-07-02T02:16:20;11.05;;;5.55;;
35128;SDS011;21301;43.626;10.580;2023-07-02T02:18:47;9.43;;;4.65;;
35128;SDS011;21301;43.626;10.580;2023-07-02T02:21:17;12.80;;;5.07;;
35128;SDS011;21301;43.626;10.580;2023-07-02T02:23:43;10.02;;;4.43;;
35128;SDS011;21301;43.626;10.580;2023-07-02T02:26:09;10.15;;;4.82;;
35128;SDS011;21301;43.626;10.580;2023-07-02T02:28:35;10.55;;;4.53;;
35128;SDS011;21301;43.626;10.580;2023-07-02T02:31:02;8.30;;;4.93;;
35128;SDS011;21301;43.626;10.580;2023-07-02T02:33:29;9.48;;;4.63;;
35128;SDS011;21301;43.626;10.580;2023-07-02T02:35:55;8.27;;;4.60;;
35128;SDS011;21301;43.626;10.580;2023-07-02T02:38:22;15.27;;;6.00;;
35128;SDS011;21301;43.626;10.580;2023-07-02T02:40:49;7.68;;;4.60;;
35128;SDS011;21301;43.626;10.580;2023-07-02T02:43:18;9.00;;;5.03;;
35128;SDS011;21301;43.626;10.580;2023-07-02T02:45:44;12.77;;;5.72;;
35128;SDS011;21301;43.626;10.580;2023-07-02T02:48:11;14.68;;;5.50;;
35128;SDS011;21301;43.626;10.580;2023-07-02T02:50:36;10.38;;;5.70;;
35128;SDS011;21301;43.626;10.580;2023-07-02T02:53:06;9.90;;;5.07;;
35128;SDS011;21301;43.626;10.580;2023-07-02T02:55:33;10.95;;;5.50;;
35128;SDS011;21301;43.626;10.580;2023-07-02T02:57:58;11.63;;;5.40;;
35128;SDS011;21301;43.626;10.580;2023-07-02T03:00:24;10.43;;;5.55;;
35128;SDS011;21301;43.626;10.580;2023-07-02T03:02:50;9.68;;;4.93;;
35128;SDS011;21301;43.626;10.580;2023-07-02T03:05:17;10.60;;;5.50;;
35128;SDS011;21301;43.626;10.580;2023-07-02T03:07:43;11.10;;;5.03;;
35128;SDS011;21301;43.626;10.580;2023-07-02T03:10:09;11.32;;;5.38;;
35128;SDS011;21301;43.626;10.580;2023-07-02T03:12:36;17.48;;;5.13;;
35128;SDS011;21301;43.626;10.580;2023-07-02T03:15:02;10.77;;;6.05;;
35128;SDS011;21301;43.626;10.580;2023-07-02T03:17:30;11.30;;;5.45;;
35128;SDS011;21301;43.626;10.580;2023-07-02T03:19:56;11.02;;;5.07;;
35128;SDS011;21301;43.626;10.580;2023-07-02T03:22:22;14.52;;;5.45;;
35128;SDS011;21301;43.626;10.580;2023-07-02T03:24:47;16.20;;;6.15;;
35128;SDS011;21301;43.626;10.580;2023-07-02T03:27:13;11.50;;;5.15;;
35128;SDS011;21301;43.626;10.580;2023-07-02T03:29:39;9.63;;;5.03;;
35128;SDS011;21301;43.626;10.580;2023-07-02T03:32:05;11.30;;;5.57;;
35128;SDS011;21301;43.626;10.580;2023-07-02T03:34:31;12.40;;;5.43;;
35128;SDS011;21301;43.626;10.580;2023-07-02T03:36:57;13.35;;;5.25;;
35128;SDS011;21301;43.626;10.580;2023-07-02T03:39:23;13.93;;;5.63;;
35128;SDS011;21301;43.626;10.580;2023-07-02T03:41:48;12.98;;;6.10;;
35128;SDS011;21301;43.626;10.580;2023-07-02T03:44:14;10.57;;;6.10;;
35128;SDS011;21301;43.626;10.580;2023-07-02T03:46:40;14.32;;;5.82;;
35128;SDS011;21301;43.626;10.580;2023-07-02T03:49:06;14.50;;;5.30;;
35128;SDS011;21301;43.626;10.580;2023-07-02T03:51:32;10.38;;;5.93;;
35128;SDS011;21301;43.626;10.580;2023-07-02T03:54:00;14.07;;;5.35;;
35128;SDS011;21301;43.626;10.580;2023-07-02T03:56:26;11.57;;;5.40;;
35128;SDS011;21301;43.626;10.580;2023-07-02T03:58:52;11.35;;;5.63;;
35128;SDS011;21301;43.626;10.580;2023-07-02T04:01:21;16.10;;;5.82;;
35128;SDS011;21301;43.626;10.580;2023-07-02T04:03:51;14.20;;;5.47;;
35128;SDS011;21301;43.626;10.580;2023-07-02T04:06:21;12.88;;;5.18;;
35128;SDS011;21301;43.626;10.580;2023-07-02T04:08:46;17.00;;;4.70;;
35128;SDS011;21301;43.626;10.580;2023-07-02T04:11:12;10.18;;;4.80;;
35128;SDS011;21301;43.626;10.580;2023-07-02T04:13:38;10.50;;;4.88;;
35128;SDS011;21301;43.626;10.580;2023-07-02T04:16:06;10.88;;;5.03;;
35128;SDS011;21301;43.626;10.580;2023-07-02T04:18:32;8.98;;;4.45;;
35128;SDS011;21301;43.626;10.580;2023-07-02T04:20:58;10.60;;;5.15;;
35128;SDS011;21301;43.626;10.580;2023-07-02T04:23:24;10.25;;;5.70;;
35128;SDS011;21301;43.626;10.580;2023-07-02T04:25:52;14.05;;;5.35;;
35128;SDS011;21301;43.626;10.580;2023-07-02T04:28:17;14.35;;;4.75;;
35128;SDS011;21301;43.626;10.580;2023-07-02T04:30:44;11.05;;;5.10;;
35128;SDS011;21301;43.626;10.580;2023-07-02T04:33:10;13.27;;;5.25;;
35128;SDS011;21301;43.626;10.580;2023-07-02T04:35:39;9.52;;;3.88;;
35128;SDS011;21301;43.626;10.580;2023-07-02T04:38:05;11.93;;;4.45;;
35128;SDS011;21301;43.626;10.580;2023-07-02T04:40:31;11.30;;;5.15;;
35128;SDS011;21301;43.626;10.580;2023-07-02T04:42:57;10.07;;;4.18;;
35128;SDS011;21301;43.626;10.580;2023-07-02T04:45:24;15.40;;;4.75;;
35128;SDS011;21301;43.626;10.580;2023-07-02T04:47:51;12.88;;;4.80;;
35128;SDS011;21301;43.626;10.580;2023-07-02T04:50:17;8.40;;;4.22;;
35128;SDS011;21301;43.626;10.580;2023-07-02T04:52:45;18.77;;;5.18;;
35128;SDS011;21301;43.626;10.580;2023-07-02T04:55:11;11.10;;;4.50;;
35128;SDS011;21301;43.626;10.580;2023-07-02T04:57:37;11.65;;;4.47;;
35128;SDS011;21301;43.626;10.580;2023-07-02T05:00:03;8.48;;;3.97;;
35128;SDS011;21301;43.626;10.580;2023-07-02T05:02:31;10.70;;;5.13;;
35128;SDS011;21301;43.626;10.580;2023-07-02T05:04:57;13.15;;;5.05;;
35128;SDS011;21301;43.626;10.580;2023-07-02T05:07:22;15.43;;;4.30;;
35128;SDS011;21301;43.626;10.580;2023-07-02T05:09:48;10.82;;;4.63;;
35128;SDS011;21301;43.626;10.580;2023-07-02T05:12:19;10.57;;;4.45;;
35128;SDS011;21301;43.626;10.580;2023-07-02T05:14:46;9.05;;;4.90;;
35128;SDS011;21301;43.626;10.580;2023-07-02T05:17:12;11.32;;;4.57;;
35128;SDS011;21301;43.626;10.580;2023-07-02T05:19:44;12.30;;;3.85;;
35128;SDS011;21301;43.626;10.580;2023-07-02T05:22:11;9.43;;;4.32;;
35128;SDS011;21301;43.626;10.580;2023-07-02T05:24:37;10.90;;;4.53;;
35128;SDS011;21301;43.626;10.580;2023-07-02T05:27:03;12.25;;;4.95;;
35128;SDS011;21301;43.626;10.580;2023-07-02T05:29:29;12.23;;;4.13;;
35128;SDS011;21301;43.626;10.580;2023-07-02T05:31:55;11.80;;;4.00;;
35128;SDS011;21301;43.626;10.580;2023-07-02T05:34:21;12.50;;;4.97;;
35128;SDS011;21301;43.626;10.580;2023-07-02T05:36:47;10.95;;;5.00;;
35128;SDS011;21301;43.626;10.580;2023-07-02T05:39:12;11.90;;;5.00;;
35128;SDS011;21301;43.626;10.580;2023-07-02T05:41:38;7.90;;;3.47;;
35128;SDS011;21301;43.626;10.580;2023-07-02T05:44:04;11.30;;;4.05;;
35128;SDS011;21301;43.626;10.580;2023-07-02T05:46:30;11.20;;;5.30;;
35128;SDS011;21301;43.626;10.580;2023-07-02T05:48:56;12.30;;;5.47;;
35128;SDS011;21301;43.626;10.580;2023-07-02T05:51:22;9.23;;;4.15;;
35128;SDS011;21301;43.626;10.580;2023-07-02T05:53:51;7.30;;;4.10;;
35128;SDS011;21301;43.626;10.580;2023-07-02T05:56:19;12.45;;;4.57;;
35128;SDS011;21301;43.626;10.580;2023-07-02T05:58:51;7.68;;;3.85;;
35128;SDS011;21301;43.626;10.580;2023-07-02T06:01:18;10.02;;;4.15;;
35128;SDS011;21301;43.626;10.580;2023-07-02T06:03:49;12.32;;;4.20;;
35128;SDS011;21301;43.626;10.580;2023-07-02T06:06:16;10.23;;;5.20;;
35128;SDS011;21301;43.626;10.580;2023-07-02T06:08:43;10.80;;;4.78;;
35128;SDS011;21301;43.626;10.580;2023-07-02T06:11:09;8.98;;;3.67;;
35128;SDS011;21301;43.626;10.580;2023-07-02T06:13:35;11.57;;;4.18;;
35128;SDS011;21301;43.626;10.580;2023-07-02T06:16:06;14.63;;;3.60;;
35128;SDS011;21301;43.626;10.580;2023-07-02T06:18:34;9.55;;;4.05;;
35128;SDS011;21301;43.626;10.580;2023-07-02T06:21:02;9.40;;;4.32;;
35128;SDS011;21301;43.626;10.580;2023-07-02T06:23:29;15.57;;;4.60;;
35128;SDS011;21301;43.626;10.580;2023-07-02T06:25:55;10.05;;;4.40;;
35128;SDS011;21301;43.626;10.580;2023-07-02T06:28:27;10.88;;;4.07;;
35128;SDS011;21301;43.626;10.580;2023-07-02T06:30:53;9.40;;;4.35;;
35128;SDS011;21301;43.626;10.580;2023-07-02T06:33:43;9.07;;;4.13;;
35128;SDS011;21301;43.626;10.580;2023-07-02T06:36:10;11.65;;;4.30;;
35128;SDS011;21301;43.626;10.580;2023-07-02T06:38:35;7.88;;;3.60;;
35128;SDS011;21301;43.626;10.580;2023-07-02T06:41:03;9.40;;;3.70;;
35128;SDS011;21301;43.626;10.580;2023-07-02T06:43:31;9.55;;;4.80;;
35128;SDS011;21301;43.626;10.580;2023-07-02T06:45:57;10.50;;;3.85;;
35128;SDS011;21301;43.626;10.580;2023-07-02T06:48:26;7.78;;;3.40;;
35128;SDS011;21301;43.626;10.580;2023-07-02T06:50:55;7.47;;;3.45;;
35128;SDS011;21301;43.626;10.580;2023-07-02T06:53:21;10.05;;;3.70;;
35128;SDS011;21301;43.626;10.580;2023-07-02T06:55:48;7.03;;;3.33;;
35128;SDS011;21301;43.626;10.580;2023-07-02T06:58:15;8.30;;;4.03;;
35128;SDS011;21301;43.626;10.580;2023-07-02T07:00:41;12.93;;;4.57;;
35128;SDS011;21301;43.626;10.580;2023-07-02T07:03:07;8.85;;;3.90;;
35128;SDS011;21301;43.626;10.580;2023-07-02T07:05:32;9.65;;;3.35;;
35128;SDS011;21301;43.626;10.580;2023-07-02T07:07:59;7.93;;;3.88;;
35128;SDS011;21301;43.626;10.580;2023-07-02T07:10:29;7.78;;;3.72;;
35128;SDS011;21301;43.626;10.580;2023-07-02T07:13:02;8.73;;;3.83;;
35128;SDS011;21301;43.626;10.580;2023-07-02T07:15:30;10.52;;;4.43;;
35128;SDS011;21301;43.626;10.580;2023-07-02T07:18:04;7.70;;;2.90;;
35128;SDS011;21301;43.626;10.580;2023-07-02T07:20:36;13.70;;;4.13;;
35128;SDS011;21301;43.626;10.580;2023-07-02T07:23:05;10.98;;;4.10;;
35128;SDS011;21301;43.626;10.580;2023-07-02T07:25:31;8.55;;;3.50;;
35128;SDS011;21301;43.626;10.580;2023-07-02T07:27:59;8.30;;;3.83;;
35128;SDS011;21301;43.626;10.580;2023-07-02T07:30:32;9.75;;;3.28;;
35128;SDS011;21301;43.626;10.580;2023-07-02T07:33:02;11.00;;;4.05;;
35128;SDS011;21301;43.626;10.580;2023-07-02T07:35:28;7.70;;;3.60;;
35128;SDS011;21301;43.626;10.580;2023-07-02T07:37:57;8.68;;;2.72;;
35128;SDS011;21301;43.626;10.580;2023-07-02T07:40:23;7.28;;;3.10;;
35128;SDS011;21301;43.626;10.580;2023-07-02T07:42:53;7.18;;;2.83;;
35128;SDS011;21301;43.626;10.580;2023-07-02T07:45:23;14.25;;;4.13;;
35128;SDS011;21301;43.626;10.580;2023-07-02T07:47:49;7.40;;;2.88;;
35128;SDS011;21301;43.626;10.580;2023-07-02T07:50:18;8.25;;;2.70;;
35128;SDS011;21301;43.626;10.580;2023-07-02T07:52:47;8.80;;;3.70;;
35128;SDS011;21301;43.626;10.580;2023-07-02T07:55:13;9.63;;;2.90;;
35128;SDS011;21301;43.626;10.580;2023-07-02T07:57:39;9.13;;;3.08;;
35128;SDS011;21301;43.626;10.580;2023-07-02T08:00:09;7.53;;;2.25;;
35128;SDS011;21301;43.626;10.580;2023-07-02T08:02:42;7.72;;;2.85;;
35128;SDS011;21301;43.626;10.580;2023-07-02T08:05:26;6.55;;;2.78;;
35128;SDS011;21301;43.626;10.580;2023-07-02T08:07:54;12.73;;;2.75;;
35128;SDS011;21301;43.626;10.580;2023-07-02T08:10:20;8.15;;;3.40;;
35128;SDS011;21301;43.626;10.580;2023-07-02T08:12:49;8.43;;;2.95;;
35128;SDS011;21301;43.626;10.580;2023-07-02T08:15:17;7.38;;;3.13;;
35128;SDS011;21301;43.626;10.580;2023-07-02T08:17:43;18.80;;;6.68;;
35128;SDS011;21301;43.626;10.580;2023-07-02T08:20:09;9.40;;;3.30;;
35128;SDS011;21301;43.626;10.580;2023-07-02T08:22:39;13.95;;;3.72;;
35128;SDS011;21301;43.626;10.580;2023-07-02T08:25:06;7.72;;;3.42;;
35128;SDS011;21301;43.626;10.580;2023-07-02T08:27:33;11.65;;;3.88;;
35128;SDS011;21301;43.626;10.580;2023-07-02T08:30:02;9.95;;;2.80;;
35128;SDS011;21301;43.626;10.580;2023-07-02T08:32:28;10.07;;;3.05;;
35128;SDS011;21301;43.626;10.580;2023-07-02T08:34:55;8.20;;;2.95;;
35128;SDS011;21301;43.626;10.580;2023-07-02T08:37:21;6.35;;;2.75;;
35128;SDS011;21301;43.626;10.580;2023-07-02T08:39:48;8.23;;;3.33;;
35128;SDS011;21301;43.626;10.580;2023-07-02T08:42:16;7.95;;;2.92;;
35128;SDS011;21301;43.626;10.580;2023-07-02T08:44:47;9.45;;;2.95;;
35128;SDS011;21301;43.626;10.580;2023-07-02T08:47:18;10.00;;;2.90;;
35128;SDS011;21301;43.626;10.580;2023-07-02T08:49:44;5.97;;;2.70;;
35128;SDS011;21301;43.626;10.580;2023-07-02T08:52:10;7.57;;;3.15;;
35128;SDS011;21301;43.626;10.580;2023-07-02T08:54:35;10.05;;;4.10;;
35128;SDS011;21301;43.626;10.580;2023-07-02T08:57:01;8.68;;;2.88;;
35128;SDS011;21301;43.626;10.580;2023-07-02T08:59:30;7.68;;;3.08;;
35128;SDS011;21301;43.626;10.580;2023-07-02T09:01:58;9.80;;;3.42;;
35128;SDS011;21301;43.626;10.580;2023-07-02T09:04:27;7.82;;;2.92;;
35128;SDS011;21301;43.626;10.580;2023-07-02T09:07:05;8.52;;;2.90;;
35128;SDS011;21301;43.626;10.580;2023-07-02T09:09:33;7.10;;;2.95;;
35128;SDS011;21301;43.626;10.580;2023-07-02T09:12:32;7.05;;;3.15;;
35128;SDS011;21301;43.626;10.580;2023-07-02T09:15:04;9.90;;;3.53;;
35128;SDS011;21301;43.626;10.580;2023-07-02T09:17:35;6.78;;;2.80;;
35128;SDS011;21301;43.626;10.580;2023-07-02T09:20:03;9.30;;;3.58;;
35128;SDS011;21301;43.626;10.580;2023-07-02T09:22:32;7.63;;;3.05;;
35128;SDS011;21301;43.626;10.580;2023-07-02T09:24:59;8.85;;;3.10;;
35128;SDS011;21301;43.626;10.580;2023-07-02T09:27:40;11.53;;;2.73;;
35128;SDS011;21301;43.626;10.580;2023-07-02T09:30:10;9.73;;;3.17;;
35128;SDS011;21301;43.626;10.580;2023-07-02T09:32:39;8.98;;;3.00;;
35128;SDS011;21301;43.626;10.580;2023-07-02T09:35:10;8.10;;;3.38;;
35128;SDS011;21301;43.626;10.580;2023-07-02T09:37:40;9.20;;;3.83;;
35128;SDS011;21301;43.626;10.580;2023-07-02T09:40:08;14.68;;;3.60;;
35128;SDS011;21301;43.626;10.580;2023-07-02T09:42:35;7.28;;;3.03;;
35128;SDS011;21301;43.626;10.580;2023-07-02T09:45:10;7.97;;;2.67;;
35128;SDS011;21301;43.626;10.580;2023-07-02T09:47:37;9.10;;;2.65;;
35128;SDS011;21301;43.626;10.580;2023-07-02T09:50:08;7.93;;;3.03;;
35128;SDS011;21301;43.626;10.580;2023-07-02T09:52:36;9.55;;;4.25;;
35128;SDS011;21301;43.626;10.580;2023-07-02T09:55:11;7.50;;;3.28;;
35128;SDS011;21301;43.626;10.580;2023-07-02T09:57:38;7.47;;;3.25;;
35128;SDS011;21301;43.626;10.580;2023-07-02T10:00:05;7.85;;;3.05;;
35128;SDS011;21301;43.626;10.580;2023-07-02T10:02:33;8.85;;;3.15;;
35128;SDS011;21301;43.626;10.580;2023-07-02T10:05:02;6.65;;;3.30;;
35128;SDS011;21301;43.626;10.580;2023-07-02T10:07:29;6.53;;;3.00;;
35128;SDS011;21301;43.626;10.580;2023-07-02T10:09:58;14.18;;;4.15;;
35128;SDS011;21301;43.626;10.580;2023-07-02T10:12:25;7.15;;;3.13;;
35128;SDS011;21301;43.626;10.580;2023-07-02T10:14:53;7.90;;;2.88;;
35128;SDS011;21301;43.626;10.580;2023-07-02T10:17:33;13.25;;;4.20;;
35128;SDS011;21301;43.626;10.580;2023-07-02T10:20:06;11.32;;;3.67;;
35128;SDS011;21301;43.626;10.580;2023-07-02T10:22:44;8.88;;;2.90;;
35128;SDS011;21301;43.626;10.580;2023-07-02T10:25:12;9.50;;;3.08;;
35128;SDS011;21301;43.626;10.580;2023-07-02T10:27:53;8.85;;;3.22;;
35128;SDS011;21301;43.626;10.580;2023-07-02T10:30:29;6.72;;;3.15;;
35128;SDS011;21301;43.626;10.580;2023-07-02T10:33:06;7.10;;;2.83;;
35128;SDS011;21301;43.626;10.580;2023-07-02T10:35:41;6.38;;;2.50;;
35128;SDS011;21301;43.626;10.580;2023-07-02T10:38:17;9.43;;;3.20;;
35128;SDS011;21301;43.626;10.580;2023-07-02T10:40:45;7.85;;;2.60;;
35128;SDS011;21301;43.626;10.580;2023-07-02T10:43:12;7.25;;;2.63;;
35128;SDS011;21301;43.626;10.580;2023-07-02T10:45:39;11.02;;;3.72;;
35128;SDS011;21301;43.626;10.580;2023-07-02T10:48:09;8.18;;;3.13;;
35128;SDS011;21301;43.626;10.580;2023-07-02T10:50:46;8.73;;;3.17;;
35128;SDS011;21301;43.626;10.580;2023-07-02T10:55:56;8.18;;;2.67;;
35128;SDS011;21301;43.626;10.580;2023-07-02T10:58:22;11.13;;;3.28;;
35128;SDS011;21301;43.626;10.580;2023-07-02T11:00:49;5.72;;;2.92;;
35128;SDS011;21301;43.626;10.580;2023-07-02T11:03:25;6.97;;;2.58;;
35128;SDS011;21301;43.626;10.580;2023-07-02T11:05:53;6.38;;;2.80;;
35128;SDS011;21301;43.626;10.580;2023-07-02T11:08:20;7.90;;;2.30;;
35128;SDS011;21301;43.626;10.580;2023-07-02T11:13:45;6.03;;;2.30;;
35128;SDS011;21301;43.626;10.580;2023-07-02T11:16:25;7.63;;;2.65;;
35128;SDS011;21301;43.626;10.580;2023-07-02T11:18:54;8.60;;;2.70;;
35128;SDS011;21301;43.626;10.580;2023-07-02T11:21:36;8.95;;;2.95;;
35128;SDS011;21301;43.626;10.580;2023-07-02T11:24:03;5.40;;;2.28;;
35128;SDS011;21301;43.626;10.580;2023-07-02T11:26:39;4.55;;;2.28;;
35128;SDS011;21301;43.626;10.580;2023-07-02T11:29:12;8.32;;;2.65;;
35128;SDS011;21301;43.626;10.580;2023-07-02T11:35:11;5.93;;;2.00;;
35128;SDS011;21301;43.626;10.580;2023-07-02T11:37:37;6.03;;;2.35;;
35128;SDS011;21301;43.626;10.580;2023-07-02T11:40:03;11.00;;;2.35;;
35128;SDS011;21301;43.626;10.580;2023-07-02T11:42:29;6.32;;;2.63;;
35128;SDS011;21301;43.626;10.580;2023-07-02T11:44:58;6.88;;;2.25;;
35128;SDS011;21301;43.626;10.580;2023-07-02T11:47:26;5.68;;;1.92;;
35128;SDS011;21301;43.626;10.580;2023-07-02T11:49:52;6.53;;;2.97;;
35128;SDS011;21301;43.626;10.580;2023-07-02T11:52:20;4.55;;;2.45;;
35128;SDS011;21301;43.626;10.580;2023-07-02T11:54:46;6.47;;;2.70;;
35128;SDS011;21301;43.626;10.580;2023-07-02T11:57:13;6.13;;;2.38;;
35128;SDS011;21301;43.626;10.580;2023-07-02T11:59:40;5.55;;;1.95;;
35128;SDS011;21301;43.626;10.580;2023-07-02T12:02:09;7.57;;;2.28;;
35128;SDS011;21301;43.626;10.580;2023-07-02T12:04:38;5.82;;;2.25;;
35128;SDS011;21301;43.626;10.580;2023-07-02T12:07:05;6.65;;;2.35;;
35128;SDS011;21301;43.626;10.580;2023-07-02T12:09:30;10.23;;;3.15;;
35128;SDS011;21301;43.626;10.580;2023-07-02T12:11:57;5.07;;;2.10;;
35128;SDS011;21301;43.626;10.580;2023-07-02T12:14:26;4.88;;;2.15;;
35128;SDS011;21301;43.626;10.580;2023-07-02T12:16:53;8.65;;;2.88;;
35128;SDS011;21301;43.626;10.580;2023-07-02T12:19:20;6.32;;;2.38;;
35128;SDS011;21301;43.626;10.580;2023-07-02T12:21:49;6.38;;;2.20;;
35128;SDS011;21301;43.626;10.580;2023-07-02T12:24:17;6.93;;;2.85;;
35128;SDS011;21301;43.626;10.580;2023-07-02T12:26:44;6.80;;;2.80;;
35128;SDS011;21301;43.626;10.580;2023-07-02T12:29:10;7.95;;;3.03;;
35128;SDS011;21301;43.626;10.580;2023-07-02T12:31:36;9.13;;;2.42;;
35128;SDS011;21301;43.626;10.580;2023-07-02T12:34:02;9.50;;;3.47;;
35128;SDS011;21301;43.626;10.580;2023-07-02T12:36:28;5.90;;;2.67;;
35128;SDS011;21301;43.626;10.580;2023-07-02T12:38:54;11.70;;;2.83;;
35128;SDS011;21301;43.626;10.580;2023-07-02T12:41:20;7.00;;;2.45;;
35128;SDS011;21301;43.626;10.580;2023-07-02T12:43:46;5.70;;;2.45;;
35128;SDS011;21301;43.626;10.580;2023-07-02T12:46:12;6.47;;;2.25;;
35128;SDS011;21301;43.626;10.580;2023-07-02T12:48:37;5.57;;;2.20;;
35128;SDS011;21301;43.626;10.580;2023-07-02T12:51:03;7.22;;;3.03;;
35128;SDS011;21301;43.626;10.580;2023-07-02T12:53:29;8.43;;;2.90;;
35128;SDS011;21301;43.626;10.580;2023-07-02T12:55:58;10.13;;;2.78;;
35128;SDS011;21301;43.626;10.580;2023-07-02T12:58:24;5.00;;;2.33;;
35128;SDS011;21301;43.626;10.580;2023-07-02T13:00:50;5.20;;;2.30;;
35128;SDS011;21301;43.626;10.580;2023-07-02T13:03:16;5.70;;;2.03;;
35128;SDS011;21301;43.626;10.580;2023-07-02T13:05:43;8.68;;;3.42;;
35128;SDS011;21301;43.626;10.580;2023-07-02T13:08:09;5.45;;;2.15;;
35128;SDS011;21301;43.626;10.580;2023-07-02T13:10:41;4.87;;;1.80;;
35128;SDS011;21301;43.626;10.580;2023-07-02T13:13:08;6.80;;;2.83;;
35128;SDS011;21301;43.626;10.580;2023-07-02T13:15:34;8.80;;;3.17;;
35128;SDS011;21301;43.626;10.580;2023-07-02T13:18:00;7.63;;;2.10;;
35128;SDS011;21301;43.626;10.580;2023-07-02T13:20:26;5.90;;;2.33;;
35128;SDS011;21301;43.626;10.580;2023-07-02T13:22:54;5.80;;;2.33;;
35128;SDS011;21301;43.626;10.580;2023-07-02T13:25:21;6.32;;;2.50;;
35128;SDS011;21301;43.626;10.580;2023-07-02T13:27:49;8.75;;;2.58;;
35128;SDS011;21301;43.626;10.580;2023-07-02T13:30:16;6.07;;;2.13;;
35128;SDS011;21301;43.626;10.580;2023-07-02T13:32:41;5.82;;;2.20;;
35128;SDS011;21301;43.626;10.580;2023-07-02T13:35:07;6.13;;;2.25;;
35128;SDS011;21301;43.626;10.580;2023-07-02T13:37:33;5.85;;;2.25;;
35128;SDS011;21301;43.626;10.580;2023-07-02T13:40:00;11.00;;;2.67;;
35128;SDS011;21301;43.626;10.580;2023-07-02T13:42:28;5.65;;;2.55;;
35128;SDS011;21301;43.626;10.580;2023-07-02T13:44:55;8.00;;;2.40;;
35128;SDS011;21301;43.626;10.580;2023-07-02T13:47:21;5.60;;;2.20;;
35128;SDS011;21301;43.626;10.580;2023-07-02T13:49:48;6.50;;;2.25;;
35128;SDS011;21301;43.626;10.580;2023-07-02T13:52:15;5.13;;;2.03;;
35128;SDS011;21301;43.626;10.580;2023-07-02T13:54:43;5.28;;;2.28;;
35128;SDS011;21301;43.626;10.580;2023-07-02T13:57:14;8.80;;;2.50;;
35128;SDS011;21301;43.626;10.580;2023-07-02T13:59:44;7.13;;;2.58;;
35128;SDS011;21301;43.626;10.580;2023-07-02T14:02:12;5.88;;;2.22;;
35128;SDS011;21301;43.626;10.580;2023-07-02T14:04:42;4.70;;;2.00;;
35128;SDS011;21301;43.626;10.580;2023-07-02T14:07:11;6.38;;;2.35;;
35128;SDS011;21301;43.626;10.580;2023-07-02T14:09:50;7.13;;;2.47;;
35128;SDS011;21301;43.626;10.580;2023-07-02T14:12:17;12.93;;;2.70;;
35128;SDS011;21301;43.626;10.580;2023-07-02T14:14:44;5.22;;;1.75;;
35128;SDS011;21301;43.626;10.580;2023-07-02T14:17:15;5.38;;;2.20;;
35128;SDS011;21301;43.626;10.580;2023-07-02T14:19:44;5.60;;;2.05;;
35128;SDS011;21301;43.626;10.580;2023-07-02T14:22:12;5.65;;;2.03;;
35128;SDS011;21301;43.626;10.580;2023-07-02T14:24:38;6.85;;;2.08;;
35128;SDS011;21301;43.626;10.580;2023-07-02T14:27:04;4.82;;;2.00;;
35128;SDS011;21301;43.626;10.580;2023-07-02T14:29:31;5.88;;;2.25;;
35128;SDS011;21301;43.626;10.580;2023-07-02T14:31:57;8.10;;;2.50;;
35128;SDS011;21301;43.626;10.580;2023-07-02T14:34:23;5.40;;;2.28;;
35128;SDS011;21301;43.626;10.580;2023-07-02T14:36:51;4.63;;;2.05;;
35128;SDS011;21301;43.626;10.580;2023-07-02T14:39:20;3.60;;;1.55;;
35128;SDS011;21301;43.626;10.580;2023-07-02T14:41:47;4.10;;;2.00;;
35128;SDS011;21301;43.626;10.580;2023-07-02T14:44:14;4.22;;;1.92;;